Time;durP1;ratioP1;P1;durP2;ratioP2;P2;SDS_P1;SDS_P2;PMS_P1;PMS_P2;Temp;Humidity;BMP_temperature;BMP_pressure;BME280_temperature;BME280_humidity;BME280_pressure;Samples;Min_cycle;Max_cycle;Signal;HPM_P1;HPM_P2
2022/12/29 00:00:49;;;;;;;2.42;1.42;;;7.90;83.60;;;;;;4113700;28;20073;-86
2022/12/29 00:06:25;;;;;;;1.80;1.40;;;7.90;83.70;;;;;;4112680;28;20037;-85
2022/12/29 00:08:44;;;;;;;3.97;1.60;;;8.00;83.70;;;;;;4117649;28;20508;-86
2022/12/29 00:11:03;;;;;;;4.95;1.70;;;7.90;83.90;;;;;;4114782;28;20097;-86
2022/12/29 00:16:07;;;;;;;2.83;1.95;;;8.10;84.00;;;;;;4113044;28;20093;-85
2022/12/29 00:18:27;;;;;;;2.58;2.00;;;7.90;83.90;;;;;;4115104;28;20652;-87
2022/12/29 00:35:30;;;;;;;4.63;2.92;;;8.00;84.20;;;;;;4113954;28;20073;-87
2022/12/29 00:45:13;;;;;;;4.68;3.13;;;8.10;84.70;;;;;;4162365;28;20152;-86
2022/12/29 00:47:32;;;;;;;4.63;2.90;;;8.20;84.70;;;;;;4162041;28;20164;-86
2022/12/29 00:49:51;;;;;;;6.30;3.20;;;8.30;84.90;;;;;;4163770;28;20068;-87
2022/12/29 00:52:12;;;;;;;5.55;3.30;;;8.20;84.80;;;;;;4160883;28;20120;-86
2022/12/29 00:54:34;;;;;;;6.65;3.33;;;8.30;84.90;;;;;;4157868;28;20127;-86
2022/12/29 00:56:53;;;;;;;4.18;2.70;;;8.30;85.70;;;;;;4156553;28;20052;-86
2022/12/29 00:59:13;;;;;;;5.05;2.90;;;8.30;85.00;;;;;;4156539;28;20151;-87
2022/12/29 01:01:33;;;;;;;6.40;3.10;;;8.40;84.90;;;;;;4159108;28;20438;-86
2022/12/29 01:03:53;;;;;;;6.60;2.95;;;8.40;84.80;;;;;;4170074;28;20117;-87
2022/12/29 01:06:12;;;;;;;5.32;3.22;;;8.50;84.90;;;;;;4159853;28;20048;-86
2022/12/29 01:08:32;;;;;;;8.70;3.08;;;8.50;84.90;;;;;;4157930;28;20376;-87
2022/12/29 01:11:12;;;;;;;6.75;3.08;;;8.60;84.90;;;;;;4160219;28;20111;-86
2022/12/29 01:13:31;;;;;;;5.93;3.42;;;8.50;84.80;;;;;;4159407;28;20040;-86
2022/12/29 01:15:51;;;;;;;3.65;2.80;;;8.60;84.80;;;;;;4160907;28;20403;-85
2022/12/29 01:18:11;;;;;;;4.95;3.00;;;8.50;84.60;;;;;;4159045;28;20072;-85
2022/12/29 01:20:30;;;;;;;3.60;2.90;;;8.50;84.60;;;;;;4156679;28;20049;-85
2022/12/29 01:22:49;;;;;;;3.90;2.90;;;8.60;84.90;;;;;;4155534;28;20533;-85
2022/12/29 01:25:09;;;;;;;7.38;3.67;;;8.60;84.60;;;;;;4157225;28;20076;-85
2022/12/29 01:27:28;;;;;;;4.97;3.05;;;8.60;84.60;;;;;;4160712;28;20056;-85
2022/12/29 01:29:47;;;;;;;4.32;2.75;;;8.70;84.60;;;;;;4160029;28;20068;-85
2022/12/29 01:32:06;;;;;;;6.43;3.03;;;8.70;84.50;;;;;;4158802;28;20531;-84
2022/12/29 01:34:26;;;;;;;4.72;2.70;;;8.70;84.50;;;;;;4159767;28;20048;-86
2022/12/29 01:36:45;;;;;;;4.43;3.00;;;8.70;84.40;;;;;;4161035;28;20094;-86
2022/12/29 01:39:04;;;;;;;3.90;3.08;;;8.70;84.40;;;;;;4161123;28;20064;-86
2022/12/29 01:41:23;;;;;;;4.18;3.17;;;8.80;84.50;;;;;;4160103;28;20039;-86
2022/12/29 01:43:52;;;;;;;5.30;2.85;;;8.70;84.40;;;;;;4159510;28;20084;-85
2022/12/29 01:46:31;;;;;;;4.13;2.80;;;8.80;84.50;;;;;;4160428;28;20052;-86
2022/12/29 01:48:57;;;;;;;3.33;2.63;;;8.70;84.40;;;;;;4157212;28;20037;-86
2022/12/29 01:51:17;;;;;;;4.03;2.78;;;8.70;84.30;;;;;;4153932;28;20031;-85
2022/12/29 01:53:37;;;;;;;4.57;3.00;;;8.70;84.40;;;;;;4156202;28;20115;-87
2022/12/29 01:56:02;;;;;;;5.55;3.60;;;8.80;84.50;;;;;;4156112;28;20407;-86
2022/12/29 01:58:24;;;;;;;6.32;2.95;;;8.80;84.40;;;;;;4155568;28;20036;-85
2022/12/29 02:00:44;;;;;;;7.28;3.55;;;8.80;84.40;;;;;;4154334;28;20040;-86
2022/12/29 02:03:06;;;;;;;3.92;2.92;;;8.90;84.50;;;;;;4157586;28;20166;-89
2022/12/29 02:05:52;;;;;;;4.72;3.13;;;8.90;84.50;;;;;;4159631;28;20037;-86
2022/12/29 02:08:12;;;;;;;4.38;3.20;;;8.80;84.40;;;;;;4159453;28;20746;-86
2022/12/29 02:10:35;;;;;;;7.38;3.42;;;8.90;84.60;;;;;;4155380;28;20158;-85
2022/12/29 02:12:55;;;;;;;4.18;2.97;;;8.90;84.50;;;;;;4155995;28;20040;-86
2022/12/29 02:15:15;;;;;;;5.32;3.40;;;8.80;84.50;;;;;;4155786;28;20045;-85
2022/12/29 02:17:44;;;;;;;4.50;3.28;;;8.90;84.50;;;;;;4155689;28;20044;-86
2022/12/29 02:20:41;;;;;;;9.63;3.83;;;8.90;84.50;;;;;;4159137;28;20182;-86
2022/12/29 02:23:22;;;;;;;7.53;3.50;;;8.90;84.40;;;;;;4171002;28;20091;-86
2022/12/29 02:26:18;;;;;;;4.05;3.45;;;8.90;84.30;;;;;;4165025;28;20035;-86
2022/12/29 02:29:04;;;;;;;4.70;3.40;;;8.90;84.20;;;;;;4155454;28;20044;-86
2022/12/29 02:31:48;;;;;;;8.50;3.40;;;9.00;84.30;;;;;;4158163;28;20060;-85
2022/12/29 02:34:31;;;;;;;4.95;3.67;;;8.90;84.10;;;;;;4157578;28;20108;-85
2022/12/29 02:36:53;;;;;;;4.15;3.28;;;8.90;84.00;;;;;;4141452;28;20040;-86
2022/12/29 02:39:32;;;;;;;5.60;3.15;;;8.90;83.90;;;;;;4155221;28;20047;-86
2022/12/29 02:41:58;;;;;;;5.32;3.45;;;8.90;84.00;;;;;;4159130;28;20534;-86
2022/12/29 02:44:27;;;;;;;4.75;3.38;;;9.00;84.00;;;;;;4167923;28;20091;-88
2022/12/29 02:47:04;;;;;;;4.10;3.30;;;9.00;84.00;;;;;;4159137;28;20041;-85
2022/12/29 02:49:37;;;;;;;5.70;3.13;;;8.90;83.90;;;;;;4158303;28;20076;-86
2022/12/29 02:52:02;;;;;;;4.50;3.17;;;8.90;84.00;;;;;;4152428;28;20423;-86
2022/12/29 02:54:41;;;;;;;5.05;3.22;;;8.90;84.00;;;;;;4157480;28;20399;-87
2022/12/29 02:57:00;;;;;;;5.55;2.80;;;9.00;84.10;;;;;;4157427;28;20044;-86
2022/12/29 02:59:21;;;;;;;4.72;2.80;;;9.00;84.20;;;;;;4157094;28;20056;-87
2022/12/29 03:02:17;;;;;;;7.30;3.03;;;8.90;84.30;;;;;;4156488;28;20117;-86
2022/12/29 03:04:54;;;;;;;3.78;3.22;;;8.90;84.40;;;;;;4154925;28;20080;-86
2022/12/29 03:07:23;;;;;;;4.88;4.00;;;9.00;84.50;;;;;;4159488;28;20104;-86
2022/12/29 03:10:00;;;;;;;3.90;3.47;;;9.00;84.50;;;;;;4159526;28;20049;-86
2022/12/29 03:16:05;;;;;;;6.32;4.25;;;9.00;84.40;;;;;;4124249;28;20611;-86
2022/12/29 03:18:58;;;;;;;6.55;3.50;;;9.00;85.10;;;;;;4114476;28;20136;-86
2022/12/29 03:22:26;;;;;;;8.60;4.05;;;9.00;84.30;;;;;;4127356;28;20041;-86
2022/12/29 03:24:08;;;;;;;4.85;2.92;;;9.10;84.30;;;;;;4126845;28;20460;-86
2022/12/29 03:26:28;;;;;;;4.57;3.10;;;9.20;84.40;;;;;;4124568;28;20121;-86
2022/12/29 03:28:56;;;;;;;6.10;3.05;;;9.10;84.40;;;;;;4113378;28;20070;-87
2022/12/29 03:31:18;;;;;;;4.95;3.28;;;9.10;84.40;;;;;;4111126;28;20528;-87
2022/12/29 03:33:39;;;;;;;4.35;3.20;;;9.00;84.40;;;;;;4124477;28;20044;-86
2022/12/29 03:36:06;;;;;;;3.95;3.13;;;9.20;84.50;;;;;;4125589;28;20089;-86
2022/12/29 03:38:30;;;;;;;3.83;2.85;;;9.10;84.40;;;;;;4117257;28;20066;-86
2022/12/29 03:40:55;;;;;;;4.90;3.03;;;9.10;84.40;;;;;;4125251;28;20126;-86
2022/12/29 03:43:15;;;;;;;5.45;3.00;;;9.20;84.30;;;;;;4129951;28;20042;-85
2022/12/29 03:45:35;;;;;;;4.97;3.13;;;9.30;84.40;;;;;;4117015;28;20056;-86
2022/12/29 03:47:54;;;;;;;4.47;2.72;;;9.30;84.40;;;;;;4159084;28;20542;-87
2022/12/29 03:50:14;;;;;;;4.68;3.10;;;9.20;84.30;;;;;;4160379;28;20612;-86
2022/12/29 03:52:34;;;;;;;5.95;3.33;;;9.20;84.20;;;;;;4158093;28;20142;-86
2022/12/29 03:54:53;;;;;;;4.70;2.90;;;9.20;84.20;;;;;;4174253;28;20131;-86
2022/12/29 03:57:12;;;;;;;7.15;3.42;;;9.30;84.30;;;;;;4159168;28;20064;-86
2022/12/29 03:59:31;;;;;;;5.55;3.33;;;9.20;84.20;;;;;;4161234;28;20052;-87
2022/12/29 04:01:51;;;;;;;8.50;3.60;;;9.30;84.20;;;;;;4158444;28;20107;-86
2022/12/29 04:04:10;;;;;;;5.63;2.53;;;9.30;84.10;;;;;;4159761;28;20053;-87
2022/12/29 04:06:29;;;;;;;4.97;3.33;;;9.30;84.00;;;;;;4156347;28;20041;-86
2022/12/29 04:08:49;;;;;;;4.57;3.05;;;9.40;84.00;;;;;;4154778;28;20045;-85
2022/12/29 04:11:11;;;;;;;4.43;2.95;;;9.30;83.90;;;;;;4158632;28;20039;-86
2022/12/29 04:13:30;;;;;;;6.43;3.50;;;9.40;84.00;;;;;;4156207;28;20534;-85
2022/12/29 04:15:49;;;;;;;6.50;3.05;;;9.40;83.90;;;;;;4159701;28;21132;-85
2022/12/29 04:18:08;;;;;;;7.80;3.03;;;9.30;83.80;;;;;;4156628;28;20044;-85
2022/12/29 04:23:06;;;;;;;12.45;3.42;;;9.40;83.60;;;;;;4159745;28;20111;-85
2022/12/29 04:25:26;;;;;;;6.20;3.70;;;9.40;83.70;;;;;;4157947;28;20741;-86
2022/12/29 04:27:48;;;;;;;6.82;3.78;;;9.40;83.50;;;;;;4156471;28;20044;-86
2022/12/29 04:30:08;;;;;;;5.50;3.80;;;9.40;83.60;;;;;;4154711;28;20120;-87
2022/12/29 04:32:27;;;;;;;6.22;3.80;;;9.40;83.50;;;;;;4157599;28;20080;-86
2022/12/29 04:34:47;;;;;;;6.72;3.90;;;9.50;83.50;;;;;;4155939;28;20076;-85
2022/12/29 04:37:06;;;;;;;6.13;3.60;;;9.50;83.60;;;;;;4159694;28;20534;-85
2022/12/29 04:39:25;;;;;;;5.22;3.67;;;9.50;83.50;;;;;;4156287;28;20071;-84
2022/12/29 04:41:44;;;;;;;7.47;3.90;;;9.50;83.50;;;;;;4157769;28;20048;-86
2022/12/29 04:44:03;;;;;;;7.47;4.10;;;9.60;83.50;;;;;;4157361;28;20076;-85
2022/12/29 04:46:22;;;;;;;6.88;3.80;;;9.50;83.50;;;;;;4156543;28;20164;-85
2022/12/29 04:48:41;;;;;;;5.65;3.80;;;9.60;83.40;;;;;;4155620;28;20076;-85
2022/12/29 04:51:00;;;;;;;7.57;3.72;;;9.60;83.40;;;;;;4155769;28;20113;-84
2022/12/29 04:53:20;;;;;;;6.53;3.88;;;9.50;83.30;;;;;;4156081;28;20039;-85
2022/12/29 04:55:39;;;;;;;5.70;3.55;;;9.60;83.30;;;;;;4156531;28;20064;-85
2022/12/29 04:57:58;;;;;;;5.15;3.47;;;9.60;83.30;;;;;;4157407;28;20044;-85
2022/12/29 05:00:18;;;;;;;5.47;3.55;;;9.60;83.20;;;;;;4153938;28;20048;-85
2022/12/29 05:02:37;;;;;;;5.07;3.15;;;9.60;83.10;;;;;;4158402;28;20064;-85
2022/12/29 05:04:56;;;;;;;5.13;3.30;;;9.60;83.00;;;;;;4158895;28;20184;-85
2022/12/29 05:07:16;;;;;;;4.05;3.10;;;9.60;83.00;;;;;;4157368;28;20036;-85
2022/12/29 05:09:38;;;;;;;5.75;3.00;;;9.60;82.90;;;;;;4159744;28;20044;-87
2022/12/29 05:11:57;;;;;;;3.92;2.80;;;9.60;82.80;;;;;;4154735;28;20107;-85
2022/12/29 05:14:17;;;;;;;4.65;2.40;;;9.60;82.80;;;;;;4155158;28;20656;-84
2022/12/29 05:16:36;;;;;;;8.38;2.80;;;9.60;82.80;;;;;;4156297;28;20091;-85
2022/12/29 05:18:55;;;;;;;5.05;2.30;;;9.60;82.70;;;;;;4157850;28;20072;-85
2022/12/29 05:21:15;;;;;;;2.90;2.33;;;9.70;82.80;;;;;;4158326;28;20618;-84
2022/12/29 05:23:34;;;;;;;3.83;2.20;;;9.60;82.60;;;;;;4158424;28;20091;-85
2022/12/29 05:25:53;;;;;;;7.38;2.30;;;9.60;82.60;;;;;;4157930;28;20052;-85
2022/12/29 05:28:13;;;;;;;3.72;1.92;;;9.70;82.60;;;;;;4159803;28;20071;-85
2022/12/29 05:30:33;;;;;;;2.83;1.80;;;9.60;82.60;;;;;;4161501;28;20048;-84
2022/12/29 05:32:52;;;;;;;1.67;1.52;;;9.70;82.50;;;;;;4159651;28;20035;-86
2022/12/29 05:35:11;;;;;;;2.38;1.60;;;9.70;82.60;;;;;;4158837;28;20040;-85
2022/12/29 05:37:39;;;;;;;2.03;1.30;;;9.70;82.60;;;;;;4159212;28;20067;-84
2022/12/29 05:39:59;;;;;;;2.47;1.05;;;9.70;82.70;;;;;;4159899;28;20036;-83
2022/12/29 05:42:19;;;;;;;1.50;0.80;;;9.60;82.40;;;;;;4158585;28;20081;-84
2022/12/29 05:44:38;;;;;;;1.85;0.80;;;9.50;82.10;;;;;;4163380;28;20040;-85
2022/12/29 05:46:59;;;;;;;1.95;0.68;;;9.60;82.00;;;;;;4162960;28;20040;-86
2022/12/29 05:49:19;;;;;;;1.75;0.60;;;9.60;81.90;;;;;;4160974;28;20040;-86
2022/12/29 05:51:38;;;;;;;1.52;0.50;;;9.60;81.60;;;;;;4161227;28;20041;-85
2022/12/29 05:53:57;;;;;;;4.05;0.68;;;9.60;81.50;;;;;;4156055;28;20032;-87
2022/12/29 05:56:16;;;;;;;0.77;0.30;;;9.50;81.30;;;;;;4157512;28;20302;-86
2022/12/29 05:58:35;;;;;;;1.10;0.35;;;9.40;81.10;;;;;;4161063;28;20041;-86
2022/12/29 06:00:54;;;;;;;1.00;0.30;;;9.50;81.00;;;;;;4160320;28;20044;-85
2022/12/29 06:03:13;;;;;;;1.42;0.28;;;9.30;80.80;;;;;;4160087;28;20427;-87
2022/12/29 06:05:32;;;;;;;3.53;0.20;;;9.40;80.80;;;;;;4181653;28;20072;-86
2022/12/29 06:07:52;;;;;;;0.90;0.20;;;9.40;80.70;;;;;;4159780;28;20043;-87
2022/12/29 06:10:11;;;;;;;1.13;0.20;;;9.40;80.50;;;;;;4156089;28;20099;-86
2022/12/29 06:12:30;;;;;;;1.50;0.30;;;9.30;80.30;;;;;;4159385;28;20068;-86
2022/12/29 06:14:50;;;;;;;1.08;0.20;;;9.30;80.30;;;;;;4159816;28;20129;-87
2022/12/29 06:17:09;;;;;;;2.15;0.28;;;9.20;80.10;;;;;;4156022;28;20399;-86
2022/12/29 06:19:28;;;;;;;2.53;0.28;;;9.20;80.10;;;;;;4159489;28;20095;-86
2022/12/29 06:21:47;;;;;;;4.57;0.40;;;9.20;80.00;;;;;;4156832;28;20626;-86
2022/12/29 06:24:10;;;;;;;4.25;0.20;;;9.20;80.10;;;;;;4161741;28;20087;-86
2022/12/29 06:26:33;;;;;;;2.50;0.30;;;9.00;79.80;;;;;;4163607;28;20048;-86
2022/12/29 06:28:52;;;;;;;3.28;0.35;;;9.10;80.00;;;;;;4156257;28;20808;-86
2022/12/29 06:31:11;;;;;;;1.52;0.20;;;9.10;80.00;;;;;;4157829;28;20113;-86
2022/12/29 06:33:31;;;;;;;2.90;0.40;;;9.10;80.00;;;;;;4159977;28;20083;-86
2022/12/29 06:35:50;;;;;;;2.22;0.43;;;9.00;79.90;;;;;;4160009;28;20881;-85
2022/12/29 06:38:09;;;;;;;6.15;0.60;;;9.10;79.90;;;;;;4159024;28;20117;-86
2022/12/29 06:40:28;;;;;;;3.38;0.57;;;9.00;79.80;;;;;;4158433;28;20044;-86
2022/12/29 06:42:48;;;;;;;2.60;0.52;;;9.00;79.90;;;;;;4164195;28;20576;-87
2022/12/29 06:45:07;;;;;;;5.20;0.90;;;9.10;80.00;;;;;;4163157;28;20079;-87
2022/12/29 06:47:29;;;;;;;2.47;0.63;;;9.00;79.90;;;;;;4159262;28;20135;-86
2022/12/29 06:49:48;;;;;;;6.45;0.85;;;9.10;80.20;;;;;;4163225;28;20041;-87
2022/12/29 06:52:07;;;;;;;3.20;0.73;;;9.00;80.10;;;;;;4162830;28;20103;-86
2022/12/29 06:54:26;;;;;;;6.55;1.13;;;8.90;80.10;;;;;;4162474;28;20028;-83
2022/12/29 06:56:45;;;;;;;7.32;1.05;;;9.10;80.30;;;;;;4163959;28;20037;-85
2022/12/29 06:59:09;;;;;;;6.10;0.80;;;8.90;80.20;;;;;;4161691;28;20470;-86
2022/12/29 07:01:28;;;;;;;7.35;0.90;;;8.90;80.30;;;;;;4160511;28;20668;-86
2022/12/29 07:03:47;;;;;;;10.15;1.00;;;8.90;80.40;;;;;;4178562;28;20047;-86
2022/12/29 07:06:07;;;;;;;8.23;1.00;;;8.90;80.40;;;;;;4164311;28;20047;-86
2022/12/29 07:08:26;;;;;;;9.77;1.05;;;8.90;80.50;;;;;;4161629;28;20040;-85
2022/12/29 07:10:46;;;;;;;8.13;1.60;;;9.00;80.60;;;;;;4163357;28;20048;-85
2022/12/29 07:13:07;;;;;;;5.60;2.17;;;8.90;80.60;;;;;;4162460;28;20071;-87
2022/12/29 07:15:26;;;;;;;5.00;1.75;;;8.90;80.70;;;;;;4159918;28;20044;-85
2022/12/29 07:17:49;;;;;;;6.20;1.30;;;8.90;80.70;;;;;;4158813;28;20041;-86
2022/12/29 07:20:11;;;;;;;6.95;1.25;;;9.00;80.80;;;;;;4160998;28;20092;-86
2022/12/29 07:22:30;;;;;;;5.93;1.38;;;9.00;80.90;;;;;;4161768;28;20040;-86
2022/12/29 07:24:50;;;;;;;3.13;0.90;;;9.10;80.80;;;;;;4155283;28;20067;-87
2022/12/29 07:27:09;;;;;;;5.38;1.13;;;9.00;80.90;;;;;;4159562;28;20620;-86
2022/12/29 07:29:28;;;;;;;6.22;1.15;;;9.00;80.90;;;;;;4153744;28;20426;-86
2022/12/29 07:31:48;;;;;;;5.07;1.00;;;9.00;81.00;;;;;;4158600;28;20062;-84
2022/12/29 07:34:08;;;;;;;3.90;1.00;;;9.00;80.90;;;;;;4160851;28;21960;-84
2022/12/29 07:36:27;;;;;;;6.38;1.38;;;9.10;80.90;;;;;;4162820;28;20040;-84
2022/12/29 07:38:46;;;;;;;5.78;1.08;;;9.10;80.70;;;;;;4171056;28;20728;-85
2022/12/29 07:41:05;;;;;;;6.18;1.08;;;9.10;80.80;;;;;;4158938;28;20044;-85
2022/12/29 07:43:25;;;;;;;8.77;1.27;;;9.20;80.90;;;;;;4159918;28;20076;-86
2022/12/29 07:45:44;;;;;;;8.80;1.58;;;9.10;80.70;;;;;;4163091;28;20035;-84
2022/12/29 07:48:07;;;;;;;16.27;1.88;;;9.10;80.50;;;;;;4158448;28;20266;-86
2022/12/29 07:50:26;;;;;;;5.63;1.30;;;9.10;80.30;;;;;;4157706;28;20276;-86
2022/12/29 07:52:47;;;;;;;11.30;1.50;;;9.10;80.30;;;;;;4158932;28;20064;-86
2022/12/29 07:55:07;;;;;;;9.10;1.90;;;9.20;80.20;;;;;;4156336;28;20048;-85
2022/12/29 07:57:26;;;;;;;16.95;1.88;;;9.20;80.10;;;;;;4164761;28;20060;-85
2022/12/29 07:59:45;;;;;;;12.43;1.85;;;9.20;79.70;;;;;;4174726;28;20036;-86
2022/12/29 08:02:04;;;;;;;14.07;1.52;;;9.20;79.80;;;;;;4156456;28;20056;-85
2022/12/29 08:04:23;;;;;;;12.55;1.65;;;9.30;79.70;;;;;;4160717;28;20102;-85
2022/12/29 08:06:43;;;;;;;16.00;2.10;;;9.20;79.40;;;;;;4157783;28;20044;-85
2022/12/29 08:09:02;;;;;;;14.77;2.08;;;9.20;79.20;;;;;;4154010;28;20048;-85
2022/12/29 08:11:21;;;;;;;12.18;1.85;;;9.20;79.00;;;;;;4159407;28;20084;-85
2022/12/29 08:13:40;;;;;;;17.13;2.10;;;9.20;78.80;;;;;;4161642;28;20071;-86
2022/12/29 08:15:59;;;;;;;14.45;2.28;;;9.40;78.70;;;;;;4156435;28;20519;-86
2022/12/29 08:18:18;;;;;;;16.73;1.98;;;9.20;78.50;;;;;;4156348;28;20598;-84
2022/12/29 08:20:37;;;;;;;15.20;2.33;;;9.20;78.40;;;;;;4160164;28;20060;-86
2022/12/29 08:22:56;;;;;;;16.17;1.90;;;9.20;78.30;;;;;;4159286;28;20075;-85
2022/12/29 08:25:16;;;;;;;14.95;1.90;;;9.20;78.30;;;;;;4160910;28;20068;-85
2022/12/29 08:27:35;;;;;;;12.20;2.17;;;9.20;78.20;;;;;;4160214;28;20048;-85
2022/12/29 08:29:57;;;;;;;13.63;1.90;;;9.20;78.00;;;;;;4158560;28;20076;-85
2022/12/29 08:32:17;;;;;;;17.98;2.05;;;9.20;77.90;;;;;;4158598;28;20857;-85
2022/12/29 08:34:36;;;;;;;23.27;2.35;;;9.20;77.90;;;;;;4159573;28;20036;-86
2022/12/29 08:36:59;;;;;;;18.08;2.35;;;9.20;77.60;;;;;;4159437;28;20112;-85
2022/12/29 08:39:18;;;;;;;18.85;2.60;;;9.20;77.40;;;;;;4156631;28;20043;-85
2022/12/29 08:41:37;;;;;;;11.02;1.75;;;9.20;77.40;;;;;;4159876;28;20075;-86
2022/12/29 08:43:57;;;;;;;14.80;1.95;;;9.20;77.40;;;;;;4162337;28;20052;-85
2022/12/29 08:46:16;;;;;;;17.38;2.40;;;9.20;77.40;;;;;;4156353;28;20121;-84
2022/12/29 08:48:35;;;;;;;11.68;2.05;;;9.20;77.40;;;;;;4159466;28;20045;-84
2022/12/29 08:50:55;;;;;;;16.83;2.28;;;9.20;77.20;;;;;;4155347;28;20065;-87
2022/12/29 08:53:14;;;;;;;12.13;2.00;;;9.30;77.30;;;;;;4157671;28;20088;-85
2022/12/29 08:55:33;;;;;;;16.17;1.98;;;9.30;77.10;;;;;;4155219;28;20077;-87
2022/12/29 08:57:52;;;;;;;10.30;1.55;;;9.20;77.00;;;;;;4159582;28;20041;-87
2022/12/29 09:00:11;;;;;;;19.95;2.20;;;9.20;76.80;;;;;;4157907;28;20124;-89
2022/12/29 09:02:31;;;;;;;12.50;1.83;;;9.20;76.80;;;;;;4162512;28;20518;-86
2022/12/29 09:04:51;;;;;;;18.55;2.72;;;9.20;76.80;;;;;;4159547;28;20144;-85
2022/12/29 09:07:10;;;;;;;14.82;2.67;;;9.20;76.50;;;;;;4156902;28;20483;-87
2022/12/29 09:09:35;;;;;;;13.80;1.92;;;9.30;76.50;;;;;;4161793;28;20102;-86
2022/12/29 09:11:54;;;;;;;11.15;1.60;;;9.20;76.60;;;;;;4161601;28;20075;-86
2022/12/29 09:14:14;;;;;;;14.68;1.90;;;9.20;76.40;;;;;;4161102;28;20119;-86
2022/12/29 09:16:34;;;;;;;18.90;2.33;;;9.30;76.50;;;;;;4156181;28;20061;-87
2022/12/29 09:18:53;;;;;;;19.52;2.60;;;9.20;76.30;;;;;;4159340;28;20092;-85
2022/12/29 09:21:12;;;;;;;18.45;2.00;;;9.20;76.30;;;;;;4157068;28;20043;-85
2022/12/29 09:23:48;;;;;;;15.27;2.38;;;9.30;76.20;;;;;;4156255;28;20100;-88
2022/12/29 09:26:09;;;;;;;16.58;2.15;;;9.20;76.10;;;;;;4157419;28;20041;-87
2022/12/29 09:28:29;;;;;;;15.05;2.30;;;9.30;76.30;;;;;;4160530;28;20040;-87
2022/12/29 09:30:48;;;;;;;21.88;2.47;;;9.30;76.20;;;;;;4167722;23;20056;-86
2022/12/29 09:33:08;;;;;;;17.83;2.28;;;9.20;75.90;;;;;;4159638;28;20040;-87
2022/12/29 09:35:27;;;;;;;19.90;2.72;;;9.20;75.80;;;;;;4160240;28;20132;-89
2022/12/29 09:37:46;;;;;;;14.20;2.28;;;9.30;75.80;;;;;;4160755;28;20036;-86
2022/12/29 09:40:07;;;;;;;21.55;2.20;;;9.20;75.50;;;;;;4171957;28;20044;-87
2022/12/29 09:42:50;;;;;;;25.30;2.25;;;9.20;75.50;;;;;;4161845;28;20044;-86
2022/12/29 09:45:18;;;;;;;16.02;2.50;;;9.20;75.30;;;;;;4158802;28;20121;-86
2022/12/29 09:47:38;;;;;;;18.27;2.47;;;9.10;75.20;;;;;;4159356;28;20037;-86
2022/12/29 09:50:15;;;;;;;13.63;2.38;;;9.20;75.30;;;;;;4159493;28;20143;-86
2022/12/29 09:53:00;;;;;;;19.75;2.42;;;9.10;74.80;;;;;;4158212;28;20071;-85
2022/12/29 09:55:23;;;;;;;15.90;2.38;;;9.10;75.00;;;;;;4159027;28;20045;-86
2022/12/29 09:57:57;;;;;;;19.60;2.55;;;9.10;74.90;;;;;;4159980;28;20045;-87
2022/12/29 10:00:41;;;;;;;19.00;2.90;;;9.10;75.20;;;;;;4156942;28;20123;-86
2022/12/29 10:03:15;;;;;;;;;;;9.30;75.20;;;;;;4157001;28;20055;-85
2022/12/29 10:06:06;;;;;;;24.20;2.67;;;9.10;75.00;;;;;;4154498;28;19936;-87
2022/12/29 10:08:41;;;;;;;15.10;2.58;;;9.10;75.00;;;;;;4155228;28;20035;-86
2022/12/29 10:11:39;;;;;;;23.48;2.92;;;9.10;74.70;;;;;;4158615;28;20040;-84
2022/12/29 10:14:20;;;;;;;13.65;2.38;;;9.10;75.10;;;;;;4159954;28;20820;-85
2022/12/29 10:17:00;;;;;;;16.63;3.25;;;9.10;75.20;;;;;;4159080;28;20063;-87
2022/12/29 10:20:00;;;;;;;18.38;2.78;;;9.10;75.20;;;;;;4159685;28;20549;-87
2022/12/29 10:22:49;;;;;;;16.15;2.13;;;9.10;75.10;;;;;;4154711;28;20818;-85
2022/12/29 10:25:31;;;;;;;30.73;3.47;;;9.10;75.20;;;;;;4169543;28;20418;-85
2022/12/29 10:27:53;;;;;;;27.05;3.10;;;9.20;75.40;;;;;;4155399;28;20060;-86
2022/12/29 10:30:14;;;;;;;24.20;3.28;;;9.10;75.30;;;;;;4153589;28;20037;-86
2022/12/29 10:32:42;;;;;;;18.77;2.75;;;9.10;75.20;;;;;;4155515;28;20051;-85
2022/12/29 10:35:26;;;;;;;19.60;2.90;;;9.20;75.30;;;;;;4166409;28;20045;-85
2022/12/29 10:38:07;;;;;;;19.25;2.55;;;9.10;74.80;;;;;;4151631;28;20052;-86
2022/12/29 10:40:58;;;;;;;24.48;3.05;;;9.20;75.20;;;;;;4154601;28;20087;-88
2022/12/29 10:43:52;;;;;;;20.25;2.55;;;9.20;75.10;;;;;;4115310;28;20487;-85
2022/12/29 10:49:29;;;;;;;17.60;2.03;;;9.20;75.10;;;;;;4090299;28;20068;-85
2022/12/29 10:51:51;;;;;;;10.00;1.88;;;9.20;75.20;;;;;;4091384;28;20160;-84
2022/12/29 10:54:18;;;;;;;17.45;2.53;;;9.20;75.30;;;;;;4095957;28;20053;-85
2022/12/29 10:56:46;;;;;;;19.05;2.47;;;9.20;75.20;;;;;;4097969;28;20625;-84
2022/12/29 10:59:29;;;;;;;20.42;2.28;;;9.10;75.00;;;;;;4082690;29;20039;-84
2022/12/29 11:02:26;;;;;;;13.25;2.53;;;9.20;75.10;;;;;;4081132;29;20043;-85
2022/12/29 11:05:32;;;;;;;13.07;2.17;;;9.10;75.00;;;;;;4093562;28;20115;-83
2022/12/29 11:07:56;;;;;;;15.35;2.20;;;9.10;75.20;;;;;;4065043;29;20035;-85
2022/12/29 11:13:46;;;;;;;17.02;2.80;;;9.10;75.20;;;;;;4032111;29;20079;-84
2022/12/29 11:16:06;;;;;;;16.15;2.50;;;9.10;75.30;;;;;;4035037;29;20052;-84
2022/12/29 11:18:32;;;;;;;16.48;1.95;;;9.00;75.30;;;;;;4032524;29;20048;-85
2022/12/29 11:21:07;;;;;;;16.52;2.38;;;9.00;75.50;;;;;;4019953;29;20447;-84
2022/12/29 11:23:37;;;;;;;;;;;9.00;75.70;;;;;;4063908;29;20099;-83
2022/12/29 11:26:10;;;;;;;14.23;1.98;;;9.00;75.90;;;;;;4064261;29;19918;-84
2022/12/29 11:28:33;;;;;;;16.92;2.13;;;8.90;75.90;;;;;;4051991;29;20067;-84
2022/12/29 11:31:01;;;;;;;21.35;2.92;;;8.90;76.10;;;;;;4067741;29;20106;-84
2022/12/29 11:33:29;;;;;;;15.20;2.40;;;8.90;76.30;;;;;;4066163;29;20455;-84
2022/12/29 11:36:01;;;;;;;16.65;2.47;;;8.90;76.60;;;;;;4067958;29;20092;-85
2022/12/29 11:38:24;;;;;;;17.05;2.58;;;8.80;76.80;;;;;;4053499;29;20040;-85
2022/12/29 11:40:43;;;;;;;13.20;2.28;;;8.80;76.90;;;;;;4049589;29;20128;-87
2022/12/29 11:43:03;;;;;;;12.68;2.55;;;8.80;77.10;;;;;;4067923;29;20467;-84
2022/12/29 11:45:25;;;;;;;14.00;1.83;;;8.70;77.30;;;;;;4104496;28;20045;-85
2022/12/29 11:48:13;;;;;;;21.58;2.38;;;8.70;77.50;;;;;;4095076;28;20045;-85
2022/12/29 11:50:48;;;;;;;17.92;2.00;;;8.70;77.70;;;;;;4143058;28;20053;-84
2022/12/29 11:53:21;;;;;;;16.70;2.60;;;8.70;77.70;;;;;;4155773;28;20335;-82
2022/12/29 11:59:26;;;;;;;24.35;3.08;;;8.70;78.00;;;;;;4151875;28;20024;-84
2022/12/29 12:01:47;;;;;;;18.25;2.53;;;8.70;78.20;;;;;;4157107;28;20048;-84
2022/12/29 12:13:31;;;;;;;25.80;2.47;;;8.70;78.70;;;;;;4767667;23;20531;-83
2022/12/29 12:16:14;;;;;;;19.27;2.20;;;8.80;78.90;;;;;;4111567;28;20587;-85
2022/12/29 12:22:13;;;;;;;20.27;2.97;;;8.70;78.90;;;;;;4114214;28;20039;-85
2022/12/29 12:24:57;;;;;;;18.38;1.88;;;8.80;78.90;;;;;;4095712;28;20122;-83
2022/12/29 12:27:39;;;;;;;14.90;2.47;;;8.70;78.90;;;;;;4120569;28;20041;-82
2022/12/29 12:30:28;;;;;;;17.90;2.20;;;8.80;79.10;;;;;;4112913;28;20041;-82
2022/12/29 12:32:58;;;;;;;13.52;1.58;;;8.90;79.10;;;;;;4076812;29;20083;-82
2022/12/29 12:35:46;;;;;;;16.00;2.10;;;8.70;79.00;;;;;;4065316;29;20060;-83
2022/12/29 12:38:30;;;;;;;11.70;2.25;;;8.70;79.00;;;;;;4068314;29;20069;-83
2022/12/29 12:41:00;;;;;;;14.85;2.15;;;8.70;79.00;;;;;;4067740;29;20095;-83
2022/12/29 12:43:44;;;;;;;11.00;2.03;;;8.70;79.00;;;;;;4064393;29;20039;-82
2022/12/29 12:46:36;;;;;;;15.68;2.20;;;8.80;78.90;;;;;;4055693;29;20039;-84
2022/12/29 12:49:17;;;;;;;9.20;1.85;;;8.70;78.90;;;;;;4058707;29;20047;-83
2022/12/29 12:52:07;;;;;;;10.23;1.63;;;8.70;78.80;;;;;;4127022;23;20103;-89
2022/12/29 12:55:04;;;;;;;9.90;1.50;;;8.70;78.90;;;;;;4158146;28;20076;-89
2022/12/29 12:57:48;;;;;;;11.95;1.65;;;8.70;78.90;;;;;;4158009;28;20041;-88
2022/12/29 13:00:22;;;;;;;10.75;1.48;;;8.60;79.00;;;;;;4144146;28;20057;-92
2022/12/29 13:03:13;;;;;;;6.07;0.90;;;8.60;79.00;;;;;;4174180;23;20060;-82
2022/12/29 13:06:08;;;;;;;8.30;1.45;;;8.70;79.10;;;;;;4145917;28;20049;-84
2022/12/29 13:12:17;;;;;;;7.22;1.33;;;8.60;79.20;;;;;;4129918;28;20049;-83
2022/12/29 13:15:14;;;;;;;10.23;1.40;;;8.60;79.20;;;;;;4155778;28;20069;-83
2022/12/29 13:18:18;;;;;;;9.27;1.67;;;8.50;79.20;;;;;;4138413;28;20037;-83
2022/12/29 13:24:23;;;;;;;11.13;1.60;;;8.50;79.40;;;;;;4102771;28;20030;-84
2022/12/29 13:30:10;;;;;;;18.23;2.58;;;8.50;79.60;;;;;;4064940;29;20038;-85
2022/12/29 13:32:43;;;;;;;17.42;2.53;;;8.50;79.60;;;;;;4065965;29;20095;-83
2022/12/29 13:35:15;;;;;;;15.98;2.63;;;8.50;79.70;;;;;;4066703;29;20063;-84
2022/12/29 13:38:28;;;;;;;;;;;;;;;;;;;;;
2022/12/29 13:41:01;;;;;;;14.32;2.40;;;8.50;79.80;;;;;;4065888;29;20131;-85
2022/12/29 13:43:21;;;;;;;15.75;2.35;;;8.40;79.70;;;;;;4065468;29;20042;-83
2022/12/29 13:45:51;;;;;;;17.60;3.15;;;8.40;79.90;;;;;;4064845;29;20410;-83
2022/12/29 13:48:24;;;;;;;19.15;2.60;;;8.30;79.70;;;;;;4065520;29;20128;-84
2022/12/29 13:50:58;;;;;;;26.95;3.10;;;8.40;79.80;;;;;;4050508;29;20123;-84
2022/12/29 13:53:36;;;;;;;;;;;8.40;79.80;;;;;;4057449;29;20047;-84
2022/12/29 13:56:14;;;;;;;30.33;3.80;;;8.40;79.80;;;;;;4060991;29;19922;-84